createdAt,value
2019-04-06T00:02:36.013Z,9.76
2019-04-06T00:05:08.714Z,9.71
2019-04-06T00:07:40.176Z,9.70
2019-04-06T00:10:12.246Z,9.57
2019-04-06T00:12:43.793Z,9.57
2019-04-06T00:15:15.727Z,9.56
2019-04-06T00:17:47.507Z,9.55
2019-04-06T00:20:18.977Z,9.43
2019-04-06T00:22:50.544Z,9.34
2019-04-06T00:25:22.042Z,9.39
2019-04-06T00:27:53.602Z,9.42
2019-04-06T00:30:25.150Z,9.33
2019-04-06T00:33:03.384Z,9.28
2019-04-06T00:35:34.955Z,9.27
2019-04-06T00:38:06.457Z,9.18
2019-04-06T00:40:38.059Z,9.11
2019-04-06T00:43:09.553Z,8.98
2019-04-06T00:45:41.020Z,9.02
2019-04-06T00:48:12.434Z,8.87
2019-04-06T00:50:43.655Z,8.86
2019-04-06T00:53:14.927Z,8.77
2019-04-06T00:55:55.150Z,8.78
2019-04-06T00:58:19.392Z,8.66
2019-04-06T01:00:51.990Z,8.64
2019-04-06T01:03:23.661Z,8.59
2019-04-06T01:05:55.330Z,8.59
2019-04-06T01:08:26.888Z,8.57
2019-04-06T01:10:58.537Z,8.52
2019-04-06T01:13:30.249Z,8.57
2019-04-06T01:16:02.252Z,8.53
2019-04-06T01:18:33.926Z,8.64
2019-04-06T01:21:05.565Z,8.65
2019-04-06T01:23:37.397Z,8.64
2019-04-06T01:26:08.921Z,8.61
2019-04-06T01:28:40.741Z,8.59
2019-04-06T01:31:12.424Z,8.58
2019-04-06T01:33:44.366Z,8.52
2019-04-06T01:36:16.148Z,8.50
2019-04-06T01:38:47.989Z,8.53
2019-04-06T01:41:19.740Z,8.59
2019-04-06T01:43:51.197Z,8.45
2019-04-06T01:46:22.831Z,8.40
2019-04-06T01:48:54.445Z,8.35
2019-04-06T01:51:26.063Z,8.31
2019-04-06T01:53:57.501Z,8.35
2019-04-06T01:56:29.950Z,8.30
2019-04-06T01:59:01.677Z,8.17
2019-04-06T02:01:37.414Z,8.16
2019-04-06T02:04:08.850Z,8.25
2019-04-06T02:06:40.595Z,8.15
2019-04-06T02:09:12.402Z,8.17
2019-04-06T02:11:44.062Z,8.22
2019-04-06T02:14:15.568Z,8.28
2019-04-06T02:16:47.175Z,8.24
2019-04-06T02:19:18.825Z,8.38
2019-04-06T02:21:50.332Z,8.28
2019-04-06T02:24:23.190Z,8.23
2019-04-06T02:26:54.856Z,8.19
2019-04-06T02:29:26.216Z,8.10
2019-04-06T02:32:15.328Z,8.07
2019-04-06T02:35:12.707Z,8.01
2019-04-06T02:38:00.635Z,7.96
2019-04-06T02:40:49.380Z,7.74
2019-04-06T02:43:29.342Z,7.66
2019-04-06T02:46:01.922Z,7.72
2019-04-06T02:48:33.731Z,7.60
2019-04-06T02:51:06.399Z,7.48
2019-04-06T02:53:38.220Z,7.54
2019-04-06T02:56:10.026Z,7.36
2019-04-06T02:58:41.641Z,7.27
2019-04-06T03:01:13.309Z,7.23
2019-04-06T03:03:44.912Z,7.24
2019-04-06T03:06:16.473Z,7.15
2019-04-06T03:08:48.483Z,7.20
2019-04-06T03:11:20.424Z,7.14
2019-04-06T03:13:52.250Z,7.05
2019-04-06T03:16:24.051Z,7.18
2019-04-06T03:18:55.555Z,7.15
2019-04-06T03:21:27.073Z,7.09
2019-04-06T03:23:58.338Z,7.08
2019-04-06T03:26:29.593Z,6.93
2019-04-06T03:29:01.325Z,6.78
2019-04-06T03:31:32.854Z,6.69
2019-04-06T03:34:04.326Z,6.64
2019-04-06T03:36:35.905Z,6.69
2019-04-06T03:39:08.496Z,6.72
2019-04-06T03:41:39.771Z,6.82
2019-04-06T03:44:11.367Z,6.90
2019-04-06T03:46:42.902Z,6.85
2019-04-06T03:49:14.520Z,6.70
2019-04-06T03:51:46.357Z,6.57
2019-04-06T03:54:18.132Z,6.56
2019-04-06T03:56:49.601Z,6.55
2019-04-06T03:59:21.308Z,6.58
2019-04-06T04:01:53.169Z,6.70
2019-04-06T04:04:24.547Z,6.68
2019-04-06T04:06:56.315Z,6.61
2019-04-06T04:09:27.671Z,6.38
2019-04-06T04:11:59.208Z,6.47
2019-04-06T04:14:30.530Z,6.48
2019-04-06T04:17:02.222Z,6.52
2019-04-06T04:19:34.225Z,6.48
2019-04-06T04:22:05.864Z,6.36
2019-04-06T04:24:37.552Z,6.37
2019-04-06T04:27:08.801Z,6.43
2019-04-06T04:29:40.328Z,6.51
2019-04-06T04:32:11.774Z,6.63
2019-04-06T04:34:43.169Z,6.65
2019-04-06T04:37:14.432Z,6.72
2019-04-06T04:39:45.830Z,6.72
2019-04-06T04:42:17.584Z,6.58
2019-04-06T04:44:49.046Z,6.62
2019-04-06T04:47:20.548Z,6.82
2019-04-06T04:49:51.997Z,6.68
2019-04-06T04:52:23.643Z,6.86
2019-04-06T04:54:54.962Z,6.89
2019-04-06T04:57:26.564Z,6.99
2019-04-06T04:59:58.108Z,6.89
2019-04-06T05:02:29.499Z,6.99
2019-04-06T05:05:00.836Z,6.96
2019-04-06T05:07:32.240Z,6.81
2019-04-06T05:10:03.684Z,6.83
2019-04-06T05:12:35.193Z,6.91
2019-04-06T05:15:10.160Z,6.90
2019-04-06T05:17:41.693Z,7.01
2019-04-06T05:20:13.614Z,7.10
2019-04-06T05:22:45.212Z,7.45
2019-04-06T05:25:16.668Z,7.68
2019-04-06T05:27:52.722Z,7.97
2019-04-06T05:30:21.162Z,7.97
2019-04-06T05:32:52.635Z,8.19
2019-04-06T05:35:24.153Z,8.34
2019-04-06T05:37:55.816Z,8.49
2019-04-06T05:40:27.237Z,8.63
2019-04-06T05:42:58.458Z,8.72
2019-04-06T05:45:29.740Z,9.00
2019-04-06T05:48:01.305Z,9.12
2019-04-06T05:50:32.658Z,9.05
2019-04-06T05:53:04.054Z,9.20
2019-04-06T05:55:35.530Z,8.98
2019-04-06T05:58:10.074Z,8.77
2019-04-06T06:00:41.241Z,9.08
2019-04-06T06:03:12.614Z,9.04
2019-04-06T06:05:44.237Z,9.18
2019-04-06T06:08:16.014Z,9.20
2019-04-06T06:10:47.438Z,8.94
2019-04-06T06:13:18.724Z,8.87
2019-04-06T06:15:50.076Z,8.89
2019-04-06T06:18:27.465Z,8.89
2019-04-06T06:20:54.982Z,8.52
2019-04-06T06:23:26.800Z,8.57
2019-04-06T06:25:58.471Z,8.63
2019-04-06T06:28:30.008Z,8.61
2019-04-06T06:31:03.923Z,8.67
2019-04-06T06:33:35.602Z,8.85
2019-04-06T06:36:07.539Z,8.81
2019-04-06T06:38:39.273Z,8.90
2019-04-06T06:41:10.856Z,8.86
2019-04-06T06:43:42.448Z,9.18
2019-04-06T06:46:14.159Z,9.35
2019-04-06T06:48:45.638Z,9.50
2019-04-06T06:51:17.339Z,9.61
2019-04-06T06:53:48.969Z,9.79
2019-04-06T06:56:20.566Z,10.19
2019-04-06T06:58:52.332Z,10.42
2019-04-06T07:01:24.144Z,10.95
2019-04-06T07:03:55.553Z,11.04
2019-04-06T07:06:26.976Z,10.96
2019-04-06T07:08:58.178Z,10.96
2019-04-06T07:11:29.652Z,11.26
2019-04-06T07:14:00.966Z,11.59
2019-04-06T07:16:32.336Z,11.26
2019-04-06T07:19:04.099Z,11.74
2019-04-06T07:21:36.065Z,11.69
2019-04-06T07:24:07.494Z,11.92
2019-04-06T07:26:41.180Z,11.89
2019-04-06T07:29:12.825Z,11.82
2019-04-06T07:31:44.159Z,11.84
2019-04-06T07:34:15.409Z,12.01
2019-04-06T07:36:46.707Z,12.15
2019-04-06T07:39:19.253Z,12.32
2019-04-06T07:41:50.753Z,12.30
2019-04-06T07:44:22.358Z,12.52
2019-04-06T07:46:53.729Z,12.77
2019-04-06T07:49:24.787Z,12.94
2019-04-06T07:51:56.199Z,13.35
2019-04-06T07:54:27.370Z,13.45
2019-04-06T07:56:58.757Z,12.93
2019-04-06T07:59:29.956Z,13.28
2019-04-06T08:02:01.526Z,13.19
2019-04-06T08:04:32.620Z,13.05
2019-04-06T08:07:03.838Z,13.61
2019-04-06T08:09:35.117Z,14.15
2019-04-06T08:12:06.499Z,14.23
2019-04-06T08:14:38.675Z,14.29
2019-04-06T08:17:09.845Z,14.50
2019-04-06T08:19:41.150Z,14.18
2019-04-06T08:22:12.342Z,13.76
2019-04-06T08:24:43.570Z,14.01
2019-04-06T08:27:14.911Z,13.76
2019-04-06T08:29:46.008Z,13.87
2019-04-06T08:32:17.605Z,13.72
2019-04-06T08:34:48.849Z,13.70
2019-04-06T08:37:20.104Z,13.50
2019-04-06T08:39:51.413Z,13.29
2019-04-06T08:42:22.651Z,13.26
2019-04-06T08:44:53.665Z,13.24
2019-04-06T08:47:24.749Z,13.35
2019-04-06T08:49:56.005Z,13.35
2019-04-06T08:52:27.197Z,14.04
2019-04-06T08:54:58.519Z,14.18
2019-04-06T08:57:29.926Z,14.23
2019-04-06T09:00:00.876Z,14.53
2019-04-06T09:02:32.289Z,14.72
2019-04-06T09:05:03.484Z,14.51
2019-04-06T09:07:34.772Z,14.80
2019-04-06T09:10:07.171Z,14.94
2019-04-06T09:12:38.421Z,14.80
2019-04-06T09:15:10.234Z,14.71
2019-04-06T09:17:41.723Z,14.92
2019-04-06T09:20:10.752Z,15.24
2019-04-06T09:22:42.284Z,15.65
2019-04-06T09:25:13.557Z,15.33
2019-04-06T09:27:44.874Z,15.23
2019-04-06T09:30:17.142Z,15.55
2019-04-06T09:32:48.462Z,15.25
2019-04-06T09:35:20.197Z,15.58
2019-04-06T09:37:51.291Z,16.23
2019-04-06T09:40:22.442Z,15.80
2019-04-06T09:42:53.959Z,15.80
2019-04-06T09:46:03.598Z,15.37
2019-04-06T09:48:48.081Z,15.22
2019-04-06T09:51:41.444Z,14.77
2019-04-06T09:54:35.724Z,15.01
2019-04-06T09:57:18.551Z,15.17
2019-04-06T10:00:04.200Z,15.25
2019-04-06T10:02:55.034Z,15.21
2019-04-06T10:05:32.783Z,15.19
2019-04-06T10:08:18.506Z,15.07
2019-04-06T10:11:21.270Z,15.37
2019-04-06T10:14:02.271Z,15.32
2019-04-06T10:17:03.787Z,15.46
2019-04-06T10:19:55.308Z,15.15
2019-04-06T10:22:35.950Z,15.39
2019-04-06T10:25:24.549Z,15.49
2019-04-06T10:28:26.671Z,15.41
2019-04-06T10:31:22.902Z,15.71
2019-04-06T10:34:22.072Z,16.12
2019-04-06T10:37:13.828Z,16.12
2019-04-06T10:40:06.771Z,16.54
2019-04-06T10:43:04.725Z,16.93
2019-04-06T10:46:06.916Z,17.07
2019-04-06T10:49:00.262Z,17.07
2019-04-06T10:51:41.330Z,17.08
2019-04-06T10:54:34.095Z,17.57
2019-04-06T10:57:23.052Z,17.57
2019-04-06T11:00:05.724Z,17.56
2019-04-06T11:03:03.335Z,17.83
2019-04-06T11:06:13.192Z,17.39
2019-04-06T11:09:10.025Z,17.45
2019-04-06T11:11:58.733Z,17.82
2019-04-06T11:14:44.426Z,17.86
2019-04-06T11:17:33.223Z,17.45
2019-04-06T11:20:29.787Z,17.53
2019-04-06T11:23:38.210Z,17.68
2019-04-06T11:26:34.316Z,17.68
2019-04-06T11:29:24.297Z,17.35
2019-04-06T11:32:20.329Z,17.31
2019-04-06T11:35:11.659Z,17.43
2019-04-06T11:38:16.839Z,17.61
2019-04-06T11:41:01.203Z,17.29
2019-04-06T11:44:09.522Z,16.94
2019-04-06T11:46:57.084Z,17.34
2019-04-06T11:49:41.471Z,17.09
2019-04-06T11:52:28.124Z,16.90
2019-04-06T11:55:13.570Z,16.65
2019-04-06T11:58:02.196Z,16.56
2019-04-06T12:00:50.627Z,16.34
2019-04-06T12:03:36.269Z,16.34
2019-04-06T12:06:35.413Z,16.19
2019-04-06T12:09:36.198Z,16.19
2019-04-06T12:12:23.951Z,16.18
2019-04-06T12:15:04.113Z,16.39
2019-04-06T12:18:03.642Z,16.46
2019-04-06T12:20:57.217Z,16.61
2019-04-06T12:23:47.074Z,16.47
2019-04-06T12:26:32.504Z,16.62
2019-04-06T12:29:17.465Z,16.82
2019-04-06T12:32:07.558Z,16.82
2019-04-06T12:34:56.523Z,16.67
2019-04-06T12:37:47.045Z,16.48
2019-04-06T12:40:31.543Z,16.45
2019-04-06T12:43:22.537Z,16.45
2019-04-06T12:46:15.693Z,16.72
2019-04-06T12:49:05.798Z,16.72
2019-04-06T12:51:53.068Z,16.68
2019-04-06T12:54:49.237Z,16.67
2019-04-06T12:57:51.615Z,16.88
2019-04-06T13:00:50.865Z,16.88
2019-04-06T13:03:32.712Z,16.71
2019-04-06T13:06:25.826Z,16.74
2019-04-06T13:09:16.018Z,16.68
2019-04-06T13:11:55.390Z,16.68
2019-04-06T13:14:50.035Z,16.92
2019-04-06T13:17:40.592Z,17.04
2019-04-06T13:20:49.551Z,17.13
2019-04-06T13:23:48.841Z,17.05
2019-04-06T13:26:41.775Z,17.21
2019-04-06T13:29:25.718Z,17.14
2019-04-06T13:32:16.013Z,17.26
2019-04-06T13:34:53.029Z,17.30
2019-04-06T13:37:44.819Z,17.29
2019-04-06T13:40:35.108Z,17.27
2019-04-06T13:43:16.642Z,17.23
2019-04-06T13:46:06.852Z,17.12
2019-04-06T13:49:02.821Z,17.04
2019-04-06T13:51:56.077Z,16.96
2019-04-06T13:54:46.531Z,17.09
2019-04-06T13:57:40.095Z,16.97
2019-04-06T14:00:25.331Z,17.01
2019-04-06T14:03:24.695Z,17.11
2019-04-06T14:06:30.072Z,17.10
2019-04-06T14:09:19.855Z,17.09
2019-04-06T14:11:56.810Z,17.19
2019-04-06T14:14:34.291Z,17.29
2019-04-06T14:17:24.731Z,17.25
2019-04-06T14:20:13.371Z,17.20
2019-04-06T14:23:03.336Z,17.07
2019-04-06T14:26:11.605Z,17.07
2019-04-06T14:29:00.527Z,17.15
2019-04-06T14:31:55.300Z,16.99
2019-04-06T14:34:54.837Z,16.89
2019-04-06T14:37:37.351Z,16.91
2019-04-06T14:40:35.013Z,16.91
2019-04-06T14:43:31.238Z,16.88
2019-04-06T14:46:21.440Z,16.84
2019-04-06T14:49:27.489Z,16.88
2019-04-06T14:52:15.430Z,16.90
2019-04-06T14:54:56.906Z,16.91
2019-04-06T14:57:40.891Z,16.82
2019-04-06T15:00:27.382Z,16.82
2019-04-06T15:03:29.733Z,16.71
2019-04-06T15:06:31.587Z,16.67
2019-04-06T15:09:22.131Z,16.62
2019-04-06T15:12:17.862Z,16.66
2019-04-06T15:15:19.826Z,16.63
2019-04-06T15:18:08.252Z,16.61
2019-04-06T15:20:52.320Z,16.67
2019-04-06T15:23:43.134Z,16.57
2019-04-06T15:26:43.053Z,16.57
2019-04-06T15:29:41.124Z,16.54
2019-04-06T15:32:37.218Z,16.57
2019-04-06T15:35:26.006Z,16.56
2019-04-06T15:38:14.804Z,16.56
2019-04-06T15:41:08.517Z,16.45
2019-04-06T15:43:53.461Z,16.54
2019-04-06T15:46:46.883Z,16.54
2019-04-06T15:49:29.329Z,16.49
2019-04-06T15:52:17.797Z,16.30
2019-04-06T15:55:02.884Z,16.30
2019-04-06T15:58:01.872Z,16.33
2019-04-06T16:00:55.004Z,16.32
2019-04-06T16:03:45.102Z,16.37
2019-04-06T16:06:31.569Z,16.33
2019-04-06T16:09:37.534Z,16.33
2019-04-06T16:12:29.284Z,16.23
2019-04-06T16:15:19.526Z,16.08
2019-04-06T16:18:07.240Z,16.02
2019-04-06T16:21:05.768Z,16.02
2019-04-06T16:24:10.113Z,16.05
2019-04-06T16:26:49.737Z,15.84
2019-04-06T16:29:54.823Z,15.78
2019-04-06T16:32:43.962Z,15.74
2019-04-06T16:35:34.447Z,15.86
2019-04-06T16:38:27.905Z,15.75
2019-04-06T16:41:24.048Z,15.63
2019-04-06T16:44:02.762Z,15.53
2019-04-06T16:47:07.550Z,15.40
2019-04-06T16:50:06.599Z,15.35
2019-04-06T16:52:47.124Z,15.15
2019-04-06T16:55:52.344Z,15.13
2019-04-06T16:58:41.095Z,15.10
2019-04-06T17:01:26.538Z,14.98
2019-04-06T17:04:06.920Z,14.94
2019-04-06T17:06:55.652Z,14.90
2019-04-06T17:09:45.774Z,14.93
2019-04-06T17:12:41.883Z,14.94
2019-04-06T17:15:41.489Z,14.95
2019-04-06T17:18:22.816Z,14.86
2019-04-06T17:21:13.030Z,14.72
2019-04-06T17:24:06.005Z,14.72
2019-04-06T17:27:02.061Z,14.55
2019-04-06T17:30:11.181Z,14.50
2019-04-06T17:33:05.613Z,14.41
2019-04-06T17:36:01.808Z,14.37
2019-04-06T17:38:45.318Z,14.28
2019-04-06T17:41:53.569Z,14.27
2019-04-06T17:44:41.688Z,14.21
2019-04-06T17:47:37.744Z,14.13
2019-04-06T17:50:25.007Z,14.12
2019-04-06T17:53:07.195Z,14.08
2019-04-06T17:56:03.486Z,14.01
2019-04-06T17:58:43.366Z,14.00
2019-04-06T18:01:32.176Z,13.93
2019-04-06T18:04:31.131Z,13.98
2019-04-06T18:07:31.128Z,13.90
2019-04-06T18:10:25.445Z,13.78
2019-04-06T18:13:11.339Z,13.77
2019-04-06T18:15:43.057Z,13.81
2019-04-06T18:18:14.208Z,13.80
2019-04-06T18:20:45.206Z,13.79
2019-04-06T18:23:16.506Z,13.73
2019-04-06T18:25:47.598Z,13.78
2019-04-06T18:28:18.720Z,13.80
2019-04-06T18:30:57.193Z,13.79
2019-04-06T18:33:28.495Z,13.81
2019-04-06T18:35:59.987Z,13.84
2019-04-06T18:38:43.269Z,13.76
2019-04-06T18:41:14.865Z,13.75
2019-04-06T18:43:46.236Z,13.77
2019-04-06T18:46:17.306Z,13.87
2019-04-06T18:48:48.640Z,13.78
2019-04-06T18:51:20.637Z,13.87
2019-04-06T18:53:52.942Z,13.89
2019-04-06T18:56:24.410Z,13.87
2019-04-06T18:58:55.537Z,13.87
2019-04-06T19:01:27.035Z,13.80
2019-04-06T19:03:57.981Z,13.88
2019-04-06T19:06:29.440Z,13.84
2019-04-06T19:09:00.791Z,13.73
2019-04-06T19:11:33.710Z,13.75
2019-04-06T19:14:04.919Z,13.73
2019-04-06T19:16:35.809Z,13.80
2019-04-06T19:19:06.782Z,13.79
2019-04-06T19:21:37.778Z,13.77
2019-04-06T19:24:08.875Z,13.67
2019-04-06T19:26:40.105Z,13.67
2019-04-06T19:29:11.177Z,13.74
2019-04-06T19:31:42.494Z,13.64
2019-04-06T19:34:13.903Z,13.63
2019-04-06T19:36:45.387Z,13.67
2019-04-06T19:39:16.959Z,13.55
2019-04-06T19:41:48.316Z,13.59
2019-04-06T19:44:20.629Z,13.64
2019-04-06T19:46:52.869Z,13.63
2019-04-06T19:49:24.139Z,13.62
2019-04-06T19:51:55.557Z,13.69
2019-04-06T19:54:27.923Z,13.66
2019-04-06T19:56:59.206Z,13.56
2019-04-06T19:59:30.672Z,13.46
2019-04-06T20:02:01.774Z,13.39
2019-04-06T20:04:32.878Z,13.51
2019-04-06T20:07:04.208Z,13.47
2019-04-06T20:09:35.585Z,13.36
2019-04-06T20:12:07.783Z,13.39
2019-04-06T20:14:39.422Z,13.48
2019-04-06T20:17:10.989Z,13.43
2019-04-06T20:19:42.222Z,13.31
2019-04-06T20:22:13.800Z,13.39
2019-04-06T20:24:45.576Z,13.25
2019-04-06T20:27:18.591Z,13.36
2019-04-06T20:29:49.773Z,13.35
2019-04-06T20:32:21.306Z,13.36
2019-04-06T20:34:52.471Z,13.36
2019-04-06T20:37:23.833Z,13.37
2019-04-06T20:39:54.855Z,13.38
2019-04-06T20:42:25.805Z,13.34
2019-04-06T20:44:57.181Z,13.22
2019-04-06T20:47:30.512Z,13.20
2019-04-06T20:50:01.801Z,13.25
2019-04-06T20:52:33.077Z,13.32
2019-04-06T20:55:06.349Z,13.10
2019-04-06T20:57:37.583Z,13.10
2019-04-06T21:00:10.156Z,13.15
2019-04-06T21:02:41.729Z,13.15
2019-04-06T21:05:13.753Z,13.13
2019-04-06T21:07:45.102Z,13.04
2019-04-06T21:10:16.469Z,13.06
2019-04-06T21:12:47.802Z,13.05
2019-04-06T21:15:21.167Z,12.95
2019-04-06T21:17:53.306Z,13.00
2019-04-06T21:20:24.664Z,12.91
2019-04-06T21:22:56.300Z,12.88
2019-04-06T21:25:27.627Z,12.81
2019-04-06T21:27:58.851Z,12.83
2019-04-06T21:30:30.021Z,12.86
2019-04-06T21:33:01.745Z,12.88
2019-04-06T21:35:34.534Z,12.88
2019-04-06T21:38:05.601Z,12.91
2019-04-06T21:40:37.358Z,12.80
2019-04-06T21:43:09.061Z,12.80
2019-04-06T21:45:40.951Z,12.76
2019-04-06T21:48:12.510Z,12.73
2019-04-06T21:50:44.166Z,12.72
2019-04-06T21:53:15.536Z,12.75
2019-04-06T21:55:47.165Z,12.72
2019-04-06T21:58:18.735Z,12.59
2019-04-06T22:00:55.686Z,12.63
2019-04-06T22:03:27.147Z,12.56
2019-04-06T22:05:58.285Z,12.65
2019-04-06T22:08:29.797Z,12.62
2019-04-06T22:11:01.729Z,12.65
2019-04-06T22:13:32.880Z,12.60
2019-04-06T22:16:04.453Z,12.53
2019-04-06T22:18:36.230Z,12.54
2019-04-06T22:21:08.101Z,12.61
2019-04-06T22:23:43.326Z,12.51
2019-04-06T22:26:12.566Z,12.54
2019-04-06T22:28:44.315Z,12.56
2019-04-06T22:31:16.463Z,12.56
2019-04-06T22:33:47.446Z,12.42
2019-04-06T22:36:18.948Z,12.47
2019-04-06T22:38:50.393Z,12.57
2019-04-06T22:41:21.895Z,12.66
2019-04-06T22:43:53.132Z,12.48
2019-04-06T22:46:25.174Z,12.44
2019-04-06T22:48:57.495Z,12.24
2019-04-06T22:51:28.880Z,12.27
2019-04-06T22:54:00.344Z,12.23
2019-04-06T22:56:31.710Z,12.20
2019-04-06T22:59:03.171Z,11.96
2019-04-06T23:01:37.349Z,11.97
2019-04-06T23:04:31.089Z,11.88
2019-04-06T23:07:12.195Z,11.79
2019-04-06T23:09:44.024Z,11.68
2019-04-06T23:12:15.565Z,11.79
2019-04-06T23:14:47.700Z,11.78
2019-04-06T23:17:19.622Z,11.85
2019-04-06T23:19:51.149Z,11.85
2019-04-06T23:22:22.680Z,11.77
2019-04-06T23:24:54.745Z,11.76
2019-04-06T23:27:26.400Z,11.72
2019-04-06T23:29:57.665Z,11.69
2019-04-06T23:32:29.597Z,11.68
2019-04-06T23:35:02.648Z,11.62
2019-04-06T23:37:34.250Z,11.68
2019-04-06T23:40:06.621Z,11.59
2019-04-06T23:42:37.960Z,11.55
2019-04-06T23:45:10.291Z,11.59
2019-04-06T23:47:41.713Z,11.53
2019-04-06T23:50:13.443Z,11.52
2019-04-06T23:52:45.145Z,11.55
2019-04-06T23:55:16.792Z,11.58
2019-04-06T23:57:48.401Z,11.47
